Time;durP1;ratioP1;P1;durP2;ratioP2;P2;SDS_P1;SDS_P2;PMS_P1;PMS_P2;Temp;Humidity;BMP_temperature;BMP_pressure;BME280_temperature;BME280_humidity;BME280_pressure;Samples;Min_cycle;Max_cycle;Signal;HPM_P1;HPM_P2
2023/12/14 00:02:10;;;;;;;2.00;1.90;;;17.40;68.60;;;;;;5074954;28;45960;-73
2023/12/14 00:04:39;;;;;;;2.20;2.10;;;17.40;68.80;;;;;;5084128;28;43435;-72
2023/12/14 00:07:07;;;;;;;2.30;2.20;;;17.30;68.90;;;;;;5081220;28;43355;-75
2023/12/14 00:09:35;;;;;;;1.93;1.93;;;17.30;68.90;;;;;;5077722;28;43372;-74
2023/12/14 00:12:03;;;;;;;1.90;1.90;;;17.30;68.90;;;;;;5077892;28;43604;-73
2023/12/14 00:14:31;;;;;;;1.87;1.87;;;17.30;69.00;;;;;;5078251;28;43385;-73
2023/12/14 00:17:00;;;;;;;1.90;1.90;;;17.30;69.00;;;;;;5079826;28;43391;-73
2023/12/14 00:19:28;;;;;;;2.10;2.10;;;17.30;69.10;;;;;;5082120;28;43411;-72
2023/12/14 00:21:56;;;;;;;1.90;1.90;;;17.20;69.20;;;;;;5081242;28;45660;-72
2023/12/14 00:24:24;;;;;;;1.80;1.80;;;17.30;69.20;;;;;;5080498;28;44731;-72
2023/12/14 00:26:53;;;;;;;2.00;2.00;;;17.30;69.10;;;;;;5084405;28;43429;-72
2023/12/14 00:29:20;;;;;;;2.10;2.10;;;17.30;69.20;;;;;;5082662;28;43366;-72
2023/12/14 00:31:49;;;;;;;2.00;2.00;;;17.30;69.20;;;;;;5088283;28;43909;-74
2023/12/14 00:34:18;;;;;;;2.40;2.30;;;17.30;69.30;;;;;;5085043;28;43426;-72
2023/12/14 00:36:46;;;;;;;2.07;2.07;;;17.20;69.30;;;;;;5083716;28;43386;-72
2023/12/14 00:39:14;;;;;;;2.13;2.13;;;17.30;69.40;;;;;;5080192;28;43343;-71
2023/12/14 00:41:42;;;;;;;2.30;2.30;;;17.40;69.90;;;;;;5075537;28;46621;-73
2023/12/14 00:44:10;;;;;;;2.50;2.23;;;17.50;68.90;;;;;;5081642;28;43432;-71
2023/12/14 00:46:38;;;;;;;2.20;2.20;;;17.50;68.40;;;;;;5070235;28;43402;-78
2023/12/14 00:49:06;;;;;;;2.20;2.20;;;17.50;68.30;;;;;;5065170;28;43437;-78
2023/12/14 00:51:37;;;;;;;2.20;2.20;;;17.50;68.50;;;;;;5061043;28;45296;-78
2023/12/14 00:54:06;;;;;;;2.17;2.17;;;17.50;68.70;;;;;;5063245;28;44644;-78
2023/12/14 00:56:34;;;;;;;2.10;2.00;;;17.50;68.50;;;;;;5061573;28;43502;-80
2023/12/14 00:59:02;;;;;;;2.10;2.10;;;17.40;68.50;;;;;;5059968;28;44088;-79
2023/12/14 01:01:30;;;;;;;1.90;1.90;;;17.40;68.70;;;;;;5068219;28;43670;-78
2023/12/14 01:03:59;;;;;;;2.03;2.03;;;17.40;68.80;;;;;;5063316;28;43427;-79
2023/12/14 01:06:27;;;;;;;1.90;1.90;;;17.30;69.60;;;;;;5057569;28;43466;-75
2023/12/14 01:08:56;;;;;;;2.30;2.30;;;17.30;69.00;;;;;;5058474;28;43535;-75
2023/12/14 01:11:24;;;;;;;1.73;1.73;;;17.30;68.90;;;;;;5059292;28;45310;-75
2023/12/14 01:13:52;;;;;;;1.70;1.70;;;17.30;69.00;;;;;;5044314;28;44269;-75
2023/12/14 01:16:20;;;;;;;2.10;2.10;;;17.30;69.00;;;;;;5055833;28;43429;-73
2023/12/14 01:18:49;;;;;;;1.83;1.83;;;17.20;69.10;;;;;;5058657;28;43500;-74
2023/12/14 01:21:17;;;;;;;2.20;2.20;;;17.20;69.10;;;;;;5064385;28;43917;-73
2023/12/14 01:23:45;;;;;;;2.00;2.00;;;17.20;69.20;;;;;;5060494;28;44390;-73
2023/12/14 01:26:14;;;;;;;1.90;1.90;;;17.20;69.10;;;;;;5060548;28;43328;-75
2023/12/14 01:28:42;;;;;;;1.90;1.90;;;17.30;69.20;;;;;;5067318;28;43431;-75
2023/12/14 01:31:10;;;;;;;2.10;2.10;;;17.20;69.10;;;;;;5062578;28;45536;-75
2023/12/14 01:33:38;;;;;;;2.20;2.20;;;17.30;69.30;;;;;;5060203;28;44782;-73
2023/12/14 01:36:07;;;;;;;2.00;2.00;;;17.20;69.30;;;;;;5062069;28;43450;-74
2023/12/14 01:38:35;;;;;;;2.07;2.07;;;17.20;69.40;;;;;;5065422;28;43385;-76
2023/12/14 01:41:03;;;;;;;1.60;1.60;;;17.30;69.30;;;;;;5063531;28;43949;-75
2023/12/14 01:43:32;;;;;;;2.10;2.10;;;17.40;69.00;;;;;;5057912;28;45109;-74
2023/12/14 01:46:00;;;;;;;2.23;2.23;;;17.50;68.60;;;;;;5066912;28;43449;-74
2023/12/14 01:48:28;;;;;;;1.93;1.93;;;17.50;68.60;;;;;;5064844;28;43457;-77
2023/12/14 01:50:57;;;;;;;2.00;2.00;;;17.50;69.30;;;;;;5064546;28;43687;-75
2023/12/14 01:53:26;;;;;;;2.10;2.10;;;17.40;68.80;;;;;;5063590;28;43407;-76
2023/12/14 01:55:54;;;;;;;2.33;2.33;;;17.40;68.70;;;;;;5053694;28;43409;-76
2023/12/14 01:58:22;;;;;;;1.80;1.80;;;17.40;68.70;;;;;;5058676;28;43505;-75
2023/12/14 02:00:55;;;;;;;2.00;2.00;;;17.40;68.80;;;;;;5054055;28;43734;-76
2023/12/14 02:03:23;;;;;;;1.83;1.83;;;17.40;68.90;;;;;;5060838;28;43446;-75
2023/12/14 02:05:51;;;;;;;2.00;2.00;;;17.30;68.90;;;;;;5060606;28;43383;-75
2023/12/14 02:08:19;;;;;;;1.93;1.93;;;17.30;69.10;;;;;;5063113;28;43530;-75
2023/12/14 02:10:48;;;;;;;2.00;2.00;;;17.30;69.10;;;;;;5062465;28;46014;-75
2023/12/14 02:13:16;;;;;;;2.20;2.20;;;17.30;69.00;;;;;;5062339;28;43324;-76
2023/12/14 02:15:44;;;;;;;1.70;1.70;;;17.30;69.10;;;;;;5061110;28;43438;-74
2023/12/14 02:18:13;;;;;;;1.93;1.83;;;17.20;69.00;;;;;;5059285;28;43433;-74
2023/12/14 02:20:41;;;;;;;2.00;2.00;;;17.20;69.10;;;;;;5061257;28;43677;-74
2023/12/14 02:23:11;;;;;;;2.00;2.00;;;17.20;69.20;;;;;;5058637;28;44856;-75
2023/12/14 02:25:39;;;;;;;1.93;1.93;;;17.20;69.40;;;;;;5064738;28;43426;-75
2023/12/14 02:28:07;;;;;;;1.90;1.90;;;17.30;69.30;;;;;;5058241;28;44014;-73
2023/12/14 02:30:35;;;;;;;2.43;2.20;;;17.40;68.90;;;;;;5063259;28;45373;-77
2023/12/14 02:33:03;;;;;;;2.13;2.13;;;17.50;68.60;;;;;;5058741;28;43940;-76
2023/12/14 02:35:31;;;;;;;2.20;2.20;;;17.50;68.40;;;;;;5047839;28;43430;-74
2023/12/14 02:37:59;;;;;;;2.43;2.33;;;17.50;68.50;;;;;;5048119;28;43374;-75
2023/12/14 02:40:29;;;;;;;2.20;2.20;;;17.40;68.70;;;;;;5045364;28;43595;-74
2023/12/14 02:42:57;;;;;;;2.13;2.13;;;17.40;68.50;;;;;;5047518;28;43398;-75
2023/12/14 02:45:25;;;;;;;2.10;2.10;;;17.40;68.60;;;;;;5046360;28;43470;-76
2023/12/14 02:47:54;;;;;;;1.70;1.70;;;17.40;68.70;;;;;;5047629;28;43461;-77
2023/12/14 02:50:22;;;;;;;1.90;1.90;;;17.30;68.70;;;;;;5044708;28;43873;-75
2023/12/14 02:52:50;;;;;;;2.20;2.20;;;17.30;69.00;;;;;;5045309;28;44035;-74
2023/12/14 02:55:18;;;;;;;2.10;2.10;;;17.30;69.20;;;;;;5040972;28;43409;-76
2023/12/14 02:57:47;;;;;;;1.90;1.90;;;17.30;69.00;;;;;;5047855;28;43519;-76
2023/12/14 03:00:15;;;;;;;1.90;1.90;;;17.30;69.00;;;;;;5040726;28;43623;-74
2023/12/14 03:02:43;;;;;;;1.97;1.97;;;17.30;69.20;;;;;;5041064;28;43367;-76
2023/12/14 03:05:11;;;;;;;1.90;1.90;;;17.30;69.20;;;;;;5047618;28;43376;-78
2023/12/14 03:07:40;;;;;;;2.27;2.17;;;17.20;69.20;;;;;;5043232;28;43447;-78
2023/12/14 03:10:09;;;;;;;1.80;1.80;;;17.20;69.30;;;;;;5046297;28;44087;-81
2023/12/14 03:12:37;;;;;;;1.70;1.70;;;17.20;69.20;;;;;;5051094;28;43877;-79
2023/12/14 03:15:08;;;;;;;1.90;1.90;;;17.20;69.20;;;;;;5049771;28;43513;-79
2023/12/14 03:17:35;;;;;;;1.87;1.87;;;17.20;69.20;;;;;;5049608;28;43494;-78
2023/12/14 03:20:06;;;;;;;1.90;1.90;;;17.20;69.30;;;;;;5051080;28;43865;-79
2023/12/14 03:22:34;;;;;;;1.97;1.97;;;17.20;69.30;;;;;;5050226;28;43492;-79
2023/12/14 03:25:03;;;;;;;2.00;2.00;;;17.20;69.40;;;;;;5052890;28;43449;-73
2023/12/14 03:27:31;;;;;;;2.00;2.00;;;17.20;69.30;;;;;;5070384;28;43398;-72
2023/12/14 03:29:59;;;;;;;1.97;1.97;;;17.40;69.10;;;;;;5069951;28;43623;-72
2023/12/14 03:32:28;;;;;;;2.07;2.07;;;17.40;68.70;;;;;;5070075;28;43379;-73
2023/12/14 03:34:57;;;;;;;1.90;1.90;;;17.40;68.50;;;;;;5067619;28;43466;-73
2023/12/14 03:37:25;;;;;;;2.03;2.03;;;17.40;68.60;;;;;;5066139;28;43350;-73
2023/12/14 03:39:53;;;;;;;1.83;1.83;;;17.40;68.70;;;;;;5070138;28;43599;-72
2023/12/14 03:42:22;;;;;;;2.10;2.10;;;17.40;68.80;;;;;;5068946;28;43415;-73
2023/12/14 03:44:51;;;;;;;1.90;1.90;;;17.30;68.70;;;;;;5069749;28;43818;-74
2023/12/14 03:47:19;;;;;;;2.03;1.80;;;17.30;68.70;;;;;;5071132;28;44074;-72
2023/12/14 03:49:49;;;;;;;1.97;1.97;;;17.30;68.90;;;;;;5065075;28;46065;-73
2023/12/14 03:52:17;;;;;;;2.10;2.10;;;17.30;69.00;;;;;;5069792;28;43315;-73
2023/12/14 03:54:45;;;;;;;2.30;2.20;;;17.20;69.10;;;;;;5066944;28;43432;-72
2023/12/14 03:57:13;;;;;;;2.10;2.10;;;17.20;69.10;;;;;;5068867;28;43519;-73
2023/12/14 03:59:41;;;;;;;2.00;2.00;;;17.20;69.10;;;;;;5069741;28;43953;-72
2023/12/14 04:02:09;;;;;;;2.13;2.13;;;17.20;69.20;;;;;;5069986;28;43375;-73
2023/12/14 04:04:37;;;;;;;2.00;2.00;;;17.20;69.20;;;;;;5068166;28;43368;-72
2023/12/14 04:07:07;;;;;;;2.40;2.40;;;17.20;69.20;;;;;;5070914;28;43366;-72
2023/12/14 04:09:35;;;;;;;2.30;2.30;;;17.20;69.70;;;;;;5069328;28;43946;-72
2023/12/14 04:12:03;;;;;;;2.40;2.40;;;17.20;69.40;;;;;;5068807;28;43434;-72
2023/12/14 04:14:31;;;;;;;2.10;2.10;;;17.30;69.10;;;;;;5069245;28;43402;-71
2023/12/14 04:17:00;;;;;;;2.40;2.40;;;17.40;68.80;;;;;;5052650;28;43339;-73
2023/12/14 04:19:28;;;;;;;2.57;2.37;;;17.40;68.50;;;;;;5049748;28;43619;-75
2023/12/14 04:21:56;;;;;;;2.20;2.20;;;17.40;68.50;;;;;;5048312;28;44725;-73
2023/12/14 04:24:25;;;;;;;2.53;2.43;;;17.30;68.60;;;;;;5050023;28;43395;-72
2023/12/14 04:26:53;;;;;;;2.50;2.40;;;17.30;68.70;;;;;;5050272;28;44000;-73
2023/12/14 04:29:21;;;;;;;2.10;2.10;;;17.40;68.70;;;;;;5048093;28;45417;-73
2023/12/14 04:31:49;;;;;;;2.17;2.17;;;17.40;68.80;;;;;;5046976;28;43403;-73
2023/12/14 04:34:18;;;;;;;2.23;2.23;;;17.30;68.80;;;;;;5052523;28;43458;-74
2023/12/14 04:36:47;;;;;;;2.40;2.40;;;17.30;68.90;;;;;;5070336;28;43944;-76
2023/12/14 04:39:16;;;;;;;2.27;2.27;;;17.30;69.10;;;;;;5069548;28;43947;-76
2023/12/14 04:41:46;;;;;;;2.50;2.50;;;17.30;69.20;;;;;;5069451;28;43454;-76
2023/12/14 04:44:14;;;;;;;2.40;2.30;;;17.30;69.10;;;;;;5069267;28;43375;-75
2023/12/14 04:46:42;;;;;;;2.23;2.23;;;17.30;69.00;;;;;;5065788;28;43466;-76
2023/12/14 04:49:10;;;;;;;2.33;2.33;;;17.30;69.10;;;;;;5073605;28;43953;-77
2023/12/14 04:51:38;;;;;;;2.40;2.40;;;17.30;69.20;;;;;;5068943;28;43359;-75
2023/12/14 04:54:06;;;;;;;2.60;2.60;;;17.30;69.30;;;;;;5070301;28;43439;-74
2023/12/14 04:56:34;;;;;;;2.50;2.50;;;17.20;69.30;;;;;;5063127;28;43459;-73
2023/12/14 04:59:04;;;;;;;2.83;2.73;;;17.30;69.30;;;;;;5069993;28;43756;-74
2023/12/14 05:01:32;;;;;;;2.33;2.33;;;17.40;69.00;;;;;;5060803;28;44430;-76
2023/12/14 05:04:02;;;;;;;2.87;2.77;;;17.50;68.70;;;;;;5069678;28;43398;-77
2023/12/14 05:06:32;;;;;;;2.50;2.50;;;17.50;68.30;;;;;;5061616;28;43574;-78
2023/12/14 05:09:02;;;;;;;2.90;2.80;;;17.50;68.50;;;;;;5069242;28;43596;-78
2023/12/14 05:11:31;;;;;;;2.47;2.47;;;17.40;68.60;;;;;;5069236;28;43394;-78
2023/12/14 05:13:59;;;;;;;2.53;2.53;;;17.40;68.50;;;;;;5068613;28;44591;-76
2023/12/14 05:16:28;;;;;;;2.53;2.43;;;17.40;68.50;;;;;;5069747;28;43382;-77
2023/12/14 05:18:56;;;;;;;2.37;2.30;;;17.40;68.60;;;;;;5069088;28;43616;-75
2023/12/14 05:21:25;;;;;;;2.57;2.57;;;17.40;68.80;;;;;;5069279;28;43444;-75
2023/12/14 05:23:53;;;;;;;2.47;2.47;;;17.40;68.90;;;;;;5069172;28;43384;-76
2023/12/14 05:26:21;;;;;;;2.60;2.60;;;17.30;69.00;;;;;;5069539;28;43361;-73
2023/12/14 05:28:49;;;;;;;2.90;2.90;;;17.30;69.00;;;;;;5061781;28;45287;-73
2023/12/14 05:31:18;;;;;;;2.57;2.57;;;17.30;68.90;;;;;;5064572;28;44808;-73
2023/12/14 05:33:47;;;;;;;2.43;2.43;;;17.30;69.00;;;;;;5068812;28;43452;-72
2023/12/14 05:36:15;;;;;;;2.60;2.60;;;17.20;69.00;;;;;;5063709;28;43697;-72
2023/12/14 05:38:44;;;;;;;2.70;2.70;;;17.20;69.10;;;;;;5065116;28;43845;-73
2023/12/14 05:41:12;;;;;;;2.57;2.50;;;17.20;69.20;;;;;;5066938;28;43525;-71
2023/12/14 05:43:40;;;;;;;2.80;2.80;;;17.20;69.30;;;;;;5067678;28;43511;-72
2023/12/14 05:46:08;;;;;;;2.73;2.73;;;17.30;69.20;;;;;;5068579;28;43448;-72
2023/12/14 05:48:37;;;;;;;2.47;2.47;;;17.40;68.80;;;;;;5066242;28;43613;-73
2023/12/14 05:51:07;;;;;;;2.37;2.37;;;17.50;68.50;;;;;;5068515;28;43364;-73
2023/12/14 05:53:39;;;;;;;4.17;3.93;;;17.40;68.40;;;;;;5067943;28;43398;-71
2023/12/14 05:56:08;;;;;;;3.67;3.37;;;17.40;68.30;;;;;;5055095;28;43566;-71
2023/12/14 05:58:37;;;;;;;3.50;3.40;;;17.40;67.60;;;;;;5067831;28;44275;-74
2023/12/14 06:01:05;;;;;;;3.43;3.23;;;17.40;67.90;;;;;;5051101;28;44748;-73
2023/12/14 06:03:33;;;;;;;3.13;3.00;;;17.40;68.10;;;;;;5068138;28;44023;-73
2023/12/14 06:06:01;;;;;;;3.20;3.10;;;17.40;68.30;;;;;;5052207;28;43943;-71
2023/12/14 06:08:30;;;;;;;3.30;3.20;;;17.40;68.50;;;;;;5054106;28;45747;-73
2023/12/14 06:11:05;;;;;;;3.40;3.30;;;17.30;68.60;;;;;;5061732;28;43996;-72
2023/12/14 06:13:33;;;;;;;3.20;3.10;;;17.30;68.80;;;;;;5062753;28;43404;-73
2023/12/14 06:16:02;;;;;;;2.93;2.83;;;17.30;69.40;;;;;;5068346;28;43559;-72
2023/12/14 06:18:31;;;;;;;2.90;2.80;;;17.30;68.70;;;;;;5068354;28;43840;-72
2023/12/14 06:20:59;;;;;;;3.17;2.97;;;17.30;68.90;;;;;;5067837;28;43448;-72
2023/12/14 06:23:27;;;;;;;3.27;3.10;;;17.30;68.90;;;;;;5053186;28;43383;-72
2023/12/14 06:25:58;;;;;;;2.93;2.93;;;17.20;68.90;;;;;;5068267;28;43379;-73
2023/12/14 06:28:26;;;;;;;3.60;3.40;;;17.30;69.10;;;;;;5058045;28;46057;-72
2023/12/14 06:30:54;;;;;;;3.00;2.90;;;17.30;68.90;;;;;;5067876;28;43498;-73
2023/12/14 06:33:22;;;;;;;3.10;3.03;;;17.30;68.90;;;;;;5067989;28;43470;-72
2023/12/14 06:35:50;;;;;;;3.10;3.03;;;17.20;68.90;;;;;;5074511;28;43355;-72
2023/12/14 06:38:18;;;;;;;2.93;2.90;;;17.20;68.90;;;;;;5088129;28;43611;-73
2023/12/14 06:40:46;;;;;;;2.87;2.83;;;17.30;69.00;;;;;;5087122;28;43410;-73
2023/12/14 06:43:16;;;;;;;3.40;3.30;;;17.20;69.10;;;;;;5074984;28;43395;-73
2023/12/14 06:45:44;;;;;;;3.40;2.87;;;17.30;69.10;;;;;;5076837;28;43492;-71
2023/12/14 06:48:12;;;;;;;2.73;2.73;;;17.40;68.80;;;;;;5081793;28;45670;-71
2023/12/14 06:50:40;;;;;;;2.80;2.80;;;17.50;68.50;;;;;;5084910;28;43424;-72
2023/12/14 06:53:08;;;;;;;3.20;3.10;;;17.50;68.30;;;;;;5084852;28;43403;-72
2023/12/14 06:55:36;;;;;;;3.33;3.23;;;17.50;68.40;;;;;;5079270;28;43446;-73
2023/12/14 06:58:08;;;;;;;3.23;3.13;;;17.40;68.50;;;;;;5061674;28;46036;-72
2023/12/14 07:00:38;;;;;;;2.93;2.83;;;17.40;68.50;;;;;;5067360;28;43426;-71
2023/12/14 07:03:06;;;;;;;3.10;3.00;;;17.40;68.50;;;;;;5067499;28;43312;-71
2023/12/14 07:05:34;;;;;;;2.93;2.90;;;17.40;68.60;;;;;;5062076;28;43865;-72
2023/12/14 07:08:03;;;;;;;2.90;2.90;;;17.40;68.70;;;;;;5067456;28;43677;-72
2023/12/14 07:10:31;;;;;;;2.77;2.77;;;17.40;68.80;;;;;;5067488;28;43473;-71
2023/12/14 07:12:59;;;;;;;3.23;3.13;;;17.30;68.90;;;;;;5067859;28;43401;-73
2023/12/14 07:15:27;;;;;;;3.13;3.00;;;17.30;69.00;;;;;;5067747;28;43464;-71
2023/12/14 07:17:56;;;;;;;2.83;2.70;;;17.30;68.90;;;;;;5067161;28;43838;-73
2023/12/14 07:20:25;;;;;;;2.67;2.67;;;17.30;69.00;;;;;;5058596;28;44923;-72
2023/12/14 07:22:53;;;;;;;2.47;2.47;;;17.30;69.00;;;;;;5055983;28;43451;-71
2023/12/14 07:25:21;;;;;;;3.03;2.90;;;17.20;69.00;;;;;;5060697;28;43678;-72
2023/12/14 07:27:49;;;;;;;3.13;3.03;;;17.20;69.10;;;;;;5067298;28;43853;-71
2023/12/14 07:30:17;;;;;;;3.60;3.40;;;17.30;69.30;;;;;;5067035;28;43973;-71
2023/12/14 07:32:45;;;;;;;3.60;3.50;;;17.30;69.10;;;;;;5067836;28;43845;-71
2023/12/14 07:35:14;;;;;;;5.67;2.80;;;17.40;68.80;;;;;;5066190;28;43459;-72
2023/12/14 07:37:43;;;;;;;3.10;3.00;;;17.40;68.30;;;;;;5065839;28;43572;-73
2023/12/14 07:40:11;;;;;;;3.23;3.10;;;17.40;68.30;;;;;;5062531;28;43336;-72
2023/12/14 07:42:40;;;;;;;3.33;3.23;;;17.40;68.50;;;;;;5050509;28;43947;-74
2023/12/14 07:45:09;;;;;;;3.07;2.93;;;17.40;68.90;;;;;;5049323;28;43534;-78
2023/12/14 07:47:37;;;;;;;3.20;3.10;;;17.40;68.60;;;;;;5060600;28;46289;-79
2023/12/14 07:50:07;;;;;;;2.90;2.80;;;17.40;68.60;;;;;;5066854;28;43479;-81
2023/12/14 07:52:36;;;;;;;2.83;2.73;;;17.30;68.70;;;;;;5066712;28;43451;-78
2023/12/14 07:55:06;;;;;;;3.10;3.00;;;17.40;68.90;;;;;;5070623;28;43980;-77
2023/12/14 07:57:34;;;;;;;3.30;3.20;;;17.30;69.00;;;;;;5069937;28;43764;-79
2023/12/14 08:00:03;;;;;;;3.47;3.37;;;17.30;69.20;;;;;;5070104;28;43479;-79
2023/12/14 08:02:32;;;;;;;3.50;3.40;;;17.30;69.00;;;;;;5067396;28;43451;-79
2023/12/14 08:05:01;;;;;;;3.90;3.37;;;17.30;69.10;;;;;;5063177;28;43447;-77
2023/12/14 08:07:29;;;;;;;3.13;3.03;;;17.30;69.10;;;;;;5053970;28;45607;-72
2023/12/14 08:09:59;;;;;;;3.27;3.07;;;17.30;69.20;;;;;;5070130;28;43470;-73
2023/12/14 08:12:28;;;;;;;3.20;3.10;;;17.30;69.30;;;;;;5070099;28;43390;-72
2023/12/14 08:14:56;;;;;;;3.23;3.13;;;17.30;69.60;;;;;;5069977;28;44010;-73
2023/12/14 08:17:24;;;;;;;3.60;3.30;;;17.30;69.60;;;;;;5064283;28;43976;-73
2023/12/14 08:19:52;;;;;;;3.17;3.07;;;17.40;69.40;;;;;;5070125;28;43457;-73
2023/12/14 08:22:21;;;;;;;3.03;2.93;;;17.40;69.00;;;;;;5069937;28;43529;-73
2023/12/14 08:24:49;;;;;;;3.23;3.10;;;17.50;68.70;;;;;;5059373;28;43443;-72
2023/12/14 08:27:18;;;;;;;3.00;2.80;;;17.50;68.80;;;;;;5064838;28;46189;-73
2023/12/14 08:29:46;;;;;;;3.90;3.60;;;17.40;68.90;;;;;;5070243;28;43427;-72
2023/12/14 08:32:14;;;;;;;3.63;3.30;;;17.40;69.00;;;;;;5070484;28;43383;-72
2023/12/14 08:34:43;;;;;;;2.90;2.80;;;17.40;68.90;;;;;;5059870;28;43617;-72
2023/12/14 08:37:11;;;;;;;3.30;3.20;;;17.40;69.00;;;;;;5063655;28;44231;-73
2023/12/14 08:39:39;;;;;;;3.13;3.03;;;17.40;69.10;;;;;;5069618;28;43535;-73
2023/12/14 08:42:07;;;;;;;3.83;3.53;;;17.30;69.20;;;;;;5056530;28;43456;-73
2023/12/14 08:44:39;;;;;;;3.67;3.47;;;17.40;69.50;;;;;;5070256;28;44240;-73
2023/12/14 08:47:08;;;;;;;3.47;3.17;;;17.40;69.50;;;;;;5065821;28;45566;-73
2023/12/14 08:49:37;;;;;;;3.57;3.37;;;17.30;69.30;;;;;;5047479;28;44824;-73
2023/12/14 08:52:05;;;;;;;3.43;3.23;;;17.40;69.50;;;;;;5066931;28;43340;-71
2023/12/14 08:54:34;;;;;;;3.47;3.27;;;17.30;69.50;;;;;;5067820;28;43809;-74
2023/12/14 08:57:02;;;;;;;4.03;3.83;;;17.30;69.60;;;;;;5085143;28;43905;-75
2023/12/14 08:59:30;;;;;;;3.80;3.60;;;17.30;69.70;;;;;;5089667;28;43482;-76
2023/12/14 09:01:59;;;;;;;4.07;3.77;;;17.30;69.80;;;;;;5089336;28;43346;-75
2023/12/14 09:04:28;;;;;;;4.23;3.90;;;17.40;69.60;;;;;;5089316;28;43462;-73
2023/12/14 09:06:56;;;;;;;3.90;3.60;;;17.50;69.30;;;;;;5090237;28;43600;-75
2023/12/14 09:09:24;;;;;;;3.80;3.60;;;17.50;69.10;;;;;;5086363;28;43316;-74
2023/12/14 09:11:52;;;;;;;4.03;3.73;;;17.40;69.10;;;;;;5089799;28;43377;-75
2023/12/14 09:14:22;;;;;;;4.10;3.73;;;17.40;69.20;;;;;;5087005;28;43475;-74
2023/12/14 09:16:50;;;;;;;3.90;3.70;;;17.40;69.50;;;;;;5087928;28;44019;-73
2023/12/14 09:19:19;;;;;;;4.00;3.80;;;17.40;69.20;;;;;;5076677;28;44530;-73
2023/12/14 09:21:48;;;;;;;3.43;3.20;;;17.40;69.30;;;;;;5087966;28;43434;-73
2023/12/14 09:24:16;;;;;;;3.40;3.30;;;17.40;69.40;;;;;;5087080;28;43507;-74
2023/12/14 09:26:44;;;;;;;3.73;3.43;;;17.30;69.30;;;;;;5075487;28;44162;-71
2023/12/14 09:29:12;;;;;;;4.57;4.23;;;17.30;69.40;;;;;;5086729;28;43399;-74
2023/12/14 09:31:42;;;;;;;4.03;3.80;;;17.30;69.60;;;;;;5082674;28;43419;-74
2023/12/14 09:34:10;;;;;;;4.13;3.73;;;17.30;69.40;;;;;;5089762;28;43893;-74
2023/12/14 09:36:40;;;;;;;3.93;3.67;;;17.30;69.40;;;;;;5090386;28;43659;-74
2023/12/14 09:39:10;;;;;;;4.00;3.70;;;17.30;69.50;;;;;;5092034;28;43389;-75
2023/12/14 09:41:38;;;;;;;3.87;3.70;;;17.30;69.60;;;;;;5089216;28;43374;-74
2023/12/14 09:44:07;;;;;;;4.10;3.80;;;17.30;69.60;;;;;;5090068;28;43415;-72
2023/12/14 09:46:37;;;;;;;3.70;3.50;;;17.20;69.80;;;;;;5083620;28;43848;-77
2023/12/14 09:49:05;;;;;;;3.80;3.60;;;17.30;69.70;;;;;;5090174;28;43340;-74
2023/12/14 09:51:36;;;;;;;5.13;3.80;;;17.40;69.50;;;;;;5088403;28;43355;-73
2023/12/14 09:54:06;;;;;;;3.77;3.63;;;17.50;69.00;;;;;;5088647;28;43348;-73
2023/12/14 09:56:34;;;;;;;3.90;3.60;;;17.50;68.80;;;;;;5086725;28;43649;-76
2023/12/14 09:59:04;;;;;;;4.00;3.80;;;17.50;68.90;;;;;;5077826;28;44694;-72
2023/12/14 10:01:35;;;;;;;4.40;4.10;;;17.40;69.10;;;;;;5093447;27;43419;-73
2023/12/14 10:04:11;;;;;;;3.80;3.60;;;17.40;69.00;;;;;;5077791;28;43443;-72
2023/12/14 10:06:39;;;;;;;3.80;3.60;;;17.50;69.00;;;;;;5089139;28;43833;-71
2023/12/14 10:09:13;;;;;;;3.57;3.37;;;17.40;69.10;;;;;;5077652;28;43523;-73
2023/12/14 10:11:41;;;;;;;4.10;3.57;;;17.40;69.10;;;;;;5074404;28;43423;-74
2023/12/14 10:14:27;;;;;;;3.60;3.40;;;17.30;69.20;;;;;;5087280;28;43441;-74
2023/12/14 10:16:55;;;;;;;3.77;3.57;;;17.30;69.50;;;;;;5068623;28;45747;-75
2023/12/14 10:19:30;;;;;;;3.70;3.50;;;17.30;69.30;;;;;;5086106;28;43415;-74
2023/12/14 10:22:01;;;;;;;3.23;3.10;;;17.30;69.20;;;;;;5087134;28;43386;-72
2023/12/14 10:24:31;;;;;;;3.80;3.47;;;17.30;69.30;;;;;;5068833;28;44022;-75
2023/12/14 10:26:59;;;;;;;3.97;3.67;;;17.30;69.40;;;;;;5055629;28;46340;-75
2023/12/14 10:29:27;;;;;;;3.90;3.60;;;17.30;69.40;;;;;;5058566;28;44398;-76
2023/12/14 10:31:55;;;;;;;3.47;3.37;;;17.30;69.50;;;;;;5053477;28;43360;-77
2023/12/14 10:34:23;;;;;;;3.63;3.33;;;17.30;69.80;;;;;;5067534;28;43554;-79
2023/12/14 10:36:51;;;;;;;3.60;3.40;;;17.40;69.60;;;;;;5067414;28;43752;-78
2023/12/14 10:39:19;;;;;;;3.87;3.67;;;17.40;69.20;;;;;;5067317;28;43530;-77
2023/12/14 10:41:49;;;;;;;3.77;3.57;;;17.50;69.00;;;;;;5052514;28;43305;-79
2023/12/14 10:44:27;;;;;;;3.80;3.50;;;17.50;69.00;;;;;;5067856;28;43458;-78
2023/12/14 10:47:15;;;;;;;3.97;3.70;;;17.50;69.00;;;;;;5049873;28;45999;-78
2023/12/14 10:49:44;;;;;;;3.90;3.70;;;17.40;69.20;;;;;;5066943;28;43969;-78
2023/12/14 10:52:12;;;;;;;4.00;3.77;;;17.40;69.00;;;;;;5064839;28;43493;-77
2023/12/14 10:54:41;;;;;;;4.37;4.03;;;17.40;69.10;;;;;;5066186;28;43423;-78
2023/12/14 10:57:10;;;;;;;4.03;3.73;;;17.40;69.20;;;;;;5054653;28;45333;-80
2023/12/14 10:59:38;;;;;;;4.53;4.13;;;17.40;69.30;;;;;;5062849;28;44708;-78
2023/12/14 11:02:09;;;;;;;4.10;3.83;;;17.40;69.50;;;;;;5067553;28;43738;-78
2023/12/14 11:04:56;;;;;;;4.20;3.87;;;17.30;69.50;;;;;;5068167;28;43452;-80
2023/12/14 11:07:44;;;;;;;5.10;4.43;;;17.40;69.30;;;;;;5054142;28;45679;-79
2023/12/14 11:10:12;;;;;;;4.37;4.07;;;17.40;69.40;;;;;;5064305;28;43934;-78
2023/12/14 11:12:53;;;;;;;4.30;3.90;;;17.40;69.50;;;;;;5067429;28;43453;-79
2023/12/14 11:15:21;;;;;;;4.23;3.93;;;17.30;69.40;;;;;;5068082;28;43388;-73
2023/12/14 11:18:25;;;;;;;4.53;4.23;;;17.40;69.60;;;;;;5066822;28;43611;-74
2023/12/14 11:20:58;;;;;;;4.53;4.00;;;17.30;69.60;;;;;;5051522;28;44546;-74
2023/12/14 11:23:38;;;;;;;4.03;3.83;;;17.40;69.50;;;;;;5056055;28;43547;-74
2023/12/14 11:26:07;;;;;;;3.83;3.60;;;17.50;69.10;;;;;;5066188;28;43814;-72
2023/12/14 11:28:37;;;;;;;4.37;4.07;;;17.60;68.70;;;;;;5068724;28;43579;-72
2023/12/14 11:31:07;;;;;;;4.23;4.00;;;17.60;68.70;;;;;;5070034;28;43396;-73
2023/12/14 11:33:36;;;;;;;6.53;4.03;;;17.60;68.80;;;;;;5052499;28;43531;-73
2023/12/14 11:36:12;;;;;;;3.90;3.70;;;17.50;68.90;;;;;;5068155;28;43821;-78
2023/12/14 11:38:40;;;;;;;4.33;4.00;;;17.50;68.80;;;;;;5069446;28;43625;-79
2023/12/14 11:41:08;;;;;;;4.13;3.80;;;17.50;68.90;;;;;;5070579;28;43471;-79
2023/12/14 11:43:44;;;;;;;4.10;3.80;;;17.50;69.00;;;;;;5070732;28;43429;-77
2023/12/14 11:46:13;;;;;;;4.57;4.00;;;17.40;69.10;;;;;;5066371;28;43475;-79
2023/12/14 11:48:42;;;;;;;4.23;3.93;;;17.40;69.30;;;;;;5070505;28;43911;-76
2023/12/14 11:51:11;;;;;;;4.83;3.47;;;17.40;69.20;;;;;;5058466;28;44882;-76
2023/12/14 11:53:39;;;;;;;3.70;3.47;;;17.40;69.20;;;;;;5070588;28;43425;-80
2023/12/14 11:56:08;;;;;;;4.07;3.77;;;17.40;69.30;;;;;;5062472;28;43471;-80
2023/12/14 11:58:36;;;;;;;3.80;3.60;;;17.40;69.50;;;;;;5063624;28;43624;-80
2023/12/14 12:01:17;;;;;;;3.77;3.57;;;17.30;69.50;;;;;;5070351;28;43444;-76
2023/12/14 12:03:45;;;;;;;4.20;3.80;;;17.30;69.50;;;;;;5059024;28;43394;-77
2023/12/14 12:06:23;;;;;;;4.07;3.80;;;17.30;69.60;;;;;;5069949;28;43368;-78
2023/12/14 12:08:52;;;;;;;4.40;4.00;;;17.40;69.40;;;;;;5070296;28;43556;-79
2023/12/14 12:11:20;;;;;;;3.90;3.60;;;17.50;69.00;;;;;;5069572;28;44035;-76
2023/12/14 12:13:51;;;;;;;4.00;3.70;;;17.50;68.80;;;;;;5068905;28;44056;-78
2023/12/14 12:16:21;;;;;;;4.40;4.10;;;17.50;68.80;;;;;;5070328;28;43416;-79
2023/12/14 12:18:50;;;;;;;3.67;3.47;;;17.50;69.00;;;;;;5069375;28;43927;-78
2023/12/14 12:21:18;;;;;;;4.03;3.73;;;17.50;69.10;;;;;;5067795;28;43530;-81
2023/12/14 12:23:46;;;;;;;4.07;3.77;;;17.50;69.00;;;;;;5070061;28;43355;-77
2023/12/14 12:26:15;;;;;;;4.03;3.73;;;17.50;69.20;;;;;;5071118;28;43388;-80
2023/12/14 12:28:43;;;;;;;4.00;3.70;;;17.40;69.10;;;;;;5069625;28;44058;-76
2023/12/14 12:31:11;;;;;;;3.97;3.57;;;17.40;69.30;;;;;;5069926;28;43536;-77
2023/12/14 12:33:41;;;;;;;4.53;4.13;;;17.40;69.40;;;;;;5070003;28;43370;-78
2023/12/14 12:36:10;;;;;;;4.03;3.70;;;17.40;69.40;;;;;;5070116;28;43978;-79
2023/12/14 12:38:40;;;;;;;3.70;3.50;;;17.30;69.20;;;;;;5069354;28;43609;-78
2023/12/14 12:41:08;;;;;;;3.87;3.57;;;17.40;69.50;;;;;;5068721;28;43398;-77
2023/12/14 12:43:37;;;;;;;3.73;3.43;;;17.30;69.30;;;;;;5067111;28;43969;-76
2023/12/14 12:46:05;;;;;;;4.03;3.73;;;17.30;69.40;;;;;;5070093;28;43445;-79
2023/12/14 12:48:33;;;;;;;4.07;3.67;;;17.30;69.90;;;;;;5069607;28;43954;-77
2023/12/14 12:51:03;;;;;;;4.00;3.80;;;17.30;69.60;;;;;;5069609;28;43490;-78
2023/12/14 12:53:32;;;;;;;3.87;3.67;;;17.40;69.50;;;;;;5062470;28;43401;-78
2023/12/14 12:56:00;;;;;;;3.80;3.60;;;17.50;69.20;;;;;;5060343;28;43421;-77
2023/12/14 12:58:29;;;;;;;3.97;3.70;;;17.50;68.70;;;;;;5066340;28;44110;-79